createdAt,value
2019-06-15T00:00:28.569Z,16.80
2019-06-15T00:02:57.173Z,16.70
2019-06-15T00:05:25.715Z,16.70
2019-06-15T00:07:54.367Z,16.70
2019-06-15T00:10:22.991Z,16.60
2019-06-15T00:12:51.575Z,16.60
2019-06-15T00:15:20.207Z,16.60
2019-06-15T00:17:48.872Z,16.60
2019-06-15T00:20:17.576Z,16.60
2019-06-15T00:22:46.228Z,16.50
2019-06-15T00:25:15.132Z,16.50
2019-06-15T00:27:43.787Z,16.50
2019-06-15T00:30:14.037Z,16.60
2019-06-15T00:32:42.691Z,16.60
2019-06-15T00:35:11.627Z,16.60
2019-06-15T00:37:40.172Z,16.70
2019-06-15T00:40:09.996Z,16.70
2019-06-15T00:42:38.585Z,16.60
2019-06-15T00:45:07.316Z,16.60
2019-06-15T00:47:35.942Z,16.70
2019-06-15T00:50:05.672Z,16.60
2019-06-15T00:52:34.331Z,16.50
2019-06-15T00:55:02.987Z,16.60
2019-06-15T00:57:31.702Z,16.50
2019-06-15T01:00:00.267Z,16.50
2019-06-15T01:02:28.848Z,16.60
2019-06-15T01:04:57.432Z,16.60
2019-06-15T01:07:25.997Z,16.50
2019-06-15T01:09:54.585Z,16.50
2019-06-15T01:12:23.648Z,16.50
2019-06-15T01:14:52.237Z,16.50
2019-06-15T01:17:20.800Z,16.40
2019-06-15T01:19:49.379Z,16.40
2019-06-15T01:22:18.075Z,16.40
2019-06-15T01:24:46.658Z,16.40
2019-06-15T01:27:15.212Z,16.30
2019-06-15T01:29:43.936Z,16.20
2019-06-15T01:32:12.556Z,16.10
2019-06-15T01:34:41.187Z,16.20
2019-06-15T01:37:09.888Z,16.20
2019-06-15T01:39:38.473Z,16.20
2019-06-15T01:42:07.168Z,16.00
2019-06-15T01:44:35.753Z,16.10
2019-06-15T01:47:04.453Z,16.10
2019-06-15T01:49:33.044Z,16.20
2019-06-15T01:52:01.674Z,16.20
2019-06-15T01:54:30.251Z,16.20
2019-06-15T01:56:58.810Z,16.10
2019-06-15T01:59:27.393Z,16.00
2019-06-15T02:01:55.949Z,16.10
2019-06-15T02:04:24.533Z,16.10
2019-06-15T02:06:53.099Z,16.20
2019-06-15T02:09:21.663Z,16.30
2019-06-15T02:11:50.242Z,16.40
2019-06-15T02:14:18.941Z,16.50
2019-06-15T02:16:47.602Z,16.50
2019-06-15T02:19:16.223Z,16.70
2019-06-15T02:21:44.848Z,16.90
2019-06-15T02:24:13.429Z,16.90
2019-06-15T02:26:42.022Z,16.80
2019-06-15T02:29:10.610Z,16.80
2019-06-15T02:31:39.233Z,16.80
2019-06-15T02:34:07.878Z,17.00
2019-06-15T02:36:36.472Z,17.20
2019-06-15T02:39:07.491Z,17.30
2019-06-15T02:41:36.187Z,17.50
2019-06-15T02:44:05.818Z,17.60
2019-06-15T02:46:34.460Z,17.60
2019-06-15T02:49:03.121Z,17.60
2019-06-15T02:51:31.818Z,17.60
2019-06-15T02:54:00.471Z,17.70
2019-06-15T02:56:29.125Z,17.80
2019-06-15T02:58:57.777Z,17.90
2019-06-15T03:01:26.505Z,18.00
2019-06-15T03:03:55.117Z,18.10
2019-06-15T03:06:23.840Z,18.20
2019-06-15T03:08:53.265Z,18.20
2019-06-15T03:11:22.162Z,18.20
2019-06-15T03:13:50.748Z,18.20
2019-06-15T03:16:19.335Z,18.20
2019-06-15T03:18:47.912Z,18.20
2019-06-15T03:21:16.469Z,18.10
2019-06-15T03:23:45.044Z,18.00
2019-06-15T03:26:13.624Z,17.90
2019-06-15T03:28:42.188Z,18.00
2019-06-15T03:31:10.776Z,18.20
2019-06-15T03:33:39.323Z,18.20
2019-06-15T03:36:07.985Z,18.20
2019-06-15T03:38:36.526Z,18.20
2019-06-15T03:41:05.177Z,18.10
2019-06-15T03:43:33.741Z,17.90
2019-06-15T03:46:02.331Z,18.00
2019-06-15T03:48:30.885Z,17.80
2019-06-15T03:50:59.461Z,17.80
2019-06-15T03:53:28.017Z,17.80
2019-06-15T03:55:56.631Z,17.90
2019-06-15T03:58:25.220Z,17.90
2019-06-15T04:01:11.561Z,17.90
2019-06-15T04:03:40.133Z,17.90
2019-06-15T04:06:08.685Z,17.90
2019-06-15T04:08:37.269Z,18.00
2019-06-15T04:11:05.863Z,18.00
2019-06-15T04:13:34.432Z,17.90
2019-06-15T04:16:03.010Z,18.00
2019-06-15T04:18:31.653Z,18.00
2019-06-15T04:21:00.241Z,18.00
2019-06-15T04:23:28.819Z,18.10
2019-06-15T04:25:57.447Z,18.20
2019-06-15T04:28:26.020Z,18.20
2019-06-15T04:30:54.609Z,18.20
2019-06-15T04:33:23.188Z,18.30
2019-06-15T04:35:51.742Z,18.20
2019-06-15T04:38:20.324Z,18.10
2019-06-15T04:40:48.873Z,18.20
2019-06-15T04:43:17.452Z,18.20
2019-06-15T04:45:46.010Z,18.30
2019-06-15T04:48:14.652Z,18.30
2019-06-15T04:50:43.215Z,18.40
2019-06-15T04:53:14.738Z,18.30
2019-06-15T04:55:42.065Z,18.20
2019-06-15T04:58:10.721Z,18.30
2019-06-15T05:00:39.281Z,18.40
2019-06-15T05:03:07.925Z,18.60
2019-06-15T05:05:36.552Z,18.90
2019-06-15T05:08:05.228Z,18.90
2019-06-15T05:10:33.826Z,18.90
2019-06-15T05:13:02.368Z,18.90
2019-06-15T05:15:30.957Z,18.80
2019-06-15T05:17:59.737Z,18.90
2019-06-15T05:20:28.394Z,19.20
2019-06-15T05:22:56.941Z,19.20
2019-06-15T05:25:25.518Z,19.40
2019-06-15T05:27:54.132Z,19.40
2019-06-15T05:30:22.708Z,19.40
2019-06-15T05:32:51.257Z,19.30
2019-06-15T05:35:19.922Z,19.30
2019-06-15T05:37:48.460Z,19.30
2019-06-15T05:40:17.221Z,19.10
2019-06-15T05:42:45.768Z,19.10
2019-06-15T05:45:15.585Z,19.20
2019-06-15T05:47:44.201Z,19.20
2019-06-15T05:50:12.927Z,19.30
2019-06-15T05:52:41.480Z,19.40
2019-06-15T05:55:10.789Z,19.40
2019-06-15T05:57:39.339Z,19.30
2019-06-15T06:00:10.602Z,19.40
2019-06-15T06:02:39.219Z,19.40
2019-06-15T06:05:08.427Z,19.60
2019-06-15T06:07:36.983Z,19.60
2019-06-15T06:10:10.630Z,19.70
2019-06-15T06:12:37.894Z,19.80
2019-06-15T06:15:07.185Z,20.10
2019-06-15T06:17:35.769Z,20.30
2019-06-15T06:20:06.966Z,20.40
2019-06-15T06:22:35.613Z,20.50
2019-06-15T06:25:07.205Z,20.40
2019-06-15T06:27:36.736Z,20.30
2019-06-15T06:30:10.932Z,20.20
2019-06-15T06:32:39.566Z,20.00
2019-06-15T06:35:09.784Z,20.30
2019-06-15T06:37:38.342Z,20.50
2019-06-15T06:40:11.252Z,20.80
2019-06-15T06:42:39.820Z,21.00
2019-06-15T06:45:10.152Z,21.50
2019-06-15T06:47:38.755Z,21.80
2019-06-15T06:50:08.772Z,21.70
2019-06-15T06:52:37.433Z,21.10
2019-06-15T06:55:07.958Z,20.90
2019-06-15T06:57:50.778Z,20.70
2019-06-15T07:00:08.503Z,20.70
2019-06-15T07:02:37.222Z,20.70
2019-06-15T07:05:07.037Z,20.80
2019-06-15T07:07:35.655Z,20.90
2019-06-15T07:10:06.517Z,20.70
2019-06-15T07:12:35.248Z,20.60
2019-06-15T07:15:04.979Z,20.70
2019-06-15T07:17:33.968Z,20.70
2019-06-15T07:20:02.665Z,20.70
2019-06-15T07:22:31.475Z,20.70
2019-06-15T07:25:00.057Z,20.90
2019-06-15T07:27:28.708Z,21.10
2019-06-15T07:29:57.291Z,21.50
2019-06-15T07:32:25.842Z,21.70
2019-06-15T07:34:54.488Z,21.80
2019-06-15T07:37:23.061Z,21.70
2019-06-15T07:39:51.641Z,21.50
2019-06-15T07:42:20.260Z,21.40
2019-06-15T07:44:48.845Z,21.50
2019-06-15T07:47:17.425Z,21.90
2019-06-15T07:49:46.000Z,21.50
2019-06-15T07:52:14.558Z,21.50
2019-06-15T07:54:43.143Z,21.60
2019-06-15T07:57:11.723Z,21.70
2019-06-15T07:59:40.311Z,21.70
2019-06-15T08:02:09.127Z,21.60
2019-06-15T08:04:37.800Z,21.80
2019-06-15T08:07:07.853Z,21.70
2019-06-15T08:09:36.418Z,21.40
2019-06-15T08:12:05.536Z,21.40
2019-06-15T08:14:34.086Z,21.20
2019-06-15T08:17:02.656Z,21.00
2019-06-15T08:19:31.308Z,21.10
2019-06-15T08:21:59.954Z,21.30
2019-06-15T08:24:28.611Z,21.30
2019-06-15T08:26:57.177Z,20.80
2019-06-15T08:29:25.741Z,21.10
2019-06-15T08:31:54.327Z,21.20
2019-06-15T08:34:22.910Z,20.90
2019-06-15T08:36:51.462Z,20.70
2019-06-15T08:39:20.095Z,20.60
2019-06-15T08:41:48.612Z,20.70
2019-06-15T08:44:17.193Z,20.70
2019-06-15T08:46:45.757Z,20.40
2019-06-15T08:49:14.342Z,20.60
2019-06-15T08:51:42.921Z,20.70
2019-06-15T08:54:11.497Z,21.10
2019-06-15T08:56:40.192Z,21.10
2019-06-15T08:59:08.816Z,21.00
2019-06-15T09:01:37.364Z,20.90
2019-06-15T09:04:06.052Z,20.60
2019-06-15T09:06:34.673Z,20.50
2019-06-15T09:09:03.395Z,20.60
2019-06-15T09:11:32.013Z,20.50
2019-06-15T09:14:00.600Z,20.60
2019-06-15T09:16:29.157Z,20.90
2019-06-15T09:18:57.767Z,21.20
2019-06-15T09:21:26.368Z,21.50
2019-06-15T09:23:54.955Z,21.40
2019-06-15T09:26:23.510Z,21.40
2019-06-15T09:28:52.096Z,21.60
2019-06-15T09:31:20.637Z,21.70
2019-06-15T09:33:49.230Z,21.90
2019-06-15T09:36:17.853Z,21.80
2019-06-15T09:38:46.437Z,21.90
2019-06-15T09:41:14.998Z,22.60
2019-06-15T09:43:43.582Z,23.20
2019-06-15T09:46:12.121Z,23.40
2019-06-15T09:48:40.718Z,23.70
2019-06-15T09:51:09.343Z,23.40
2019-06-15T09:53:37.917Z,23.50
2019-06-15T09:56:06.609Z,23.50
2019-06-15T09:58:35.204Z,22.70
2019-06-15T10:01:03.898Z,22.30
2019-06-15T10:03:32.599Z,22.10
2019-06-15T10:06:01.210Z,22.30
2019-06-15T10:08:29.784Z,22.60
2019-06-15T10:10:58.416Z,23.20
2019-06-15T10:13:26.984Z,23.40
2019-06-15T10:15:55.700Z,23.60
2019-06-15T10:18:24.288Z,23.50
2019-06-15T10:20:52.934Z,23.50
2019-06-15T10:23:21.549Z,23.50
2019-06-15T10:25:50.509Z,23.70
2019-06-15T10:28:19.450Z,23.70
2019-06-15T10:30:48.000Z,23.70
2019-06-15T10:33:16.580Z,23.60
2019-06-15T10:35:45.170Z,23.70
2019-06-15T10:38:13.718Z,23.50
2019-06-15T10:40:42.317Z,23.40
2019-06-15T10:43:10.952Z,23.70
2019-06-15T10:45:39.516Z,24.10
2019-06-15T10:48:08.133Z,24.00
2019-06-15T10:50:36.754Z,23.70
2019-06-15T10:53:05.371Z,23.50
2019-06-15T10:55:34.017Z,23.40
2019-06-15T10:58:02.639Z,22.90
2019-06-15T11:00:31.356Z,22.10
2019-06-15T11:02:59.904Z,22.00
2019-06-15T11:05:28.558Z,22.30
2019-06-15T11:07:57.112Z,22.20
2019-06-15T11:10:37.738Z,21.90
2019-06-15T11:13:06.424Z,22.40
2019-06-15T11:15:35.479Z,22.30
2019-06-15T11:18:04.699Z,22.20
2019-06-15T11:20:33.291Z,21.90
2019-06-15T11:23:01.844Z,22.10
2019-06-15T11:25:30.428Z,22.40
2019-06-15T11:27:59.000Z,22.40
2019-06-15T11:30:27.554Z,23.20
2019-06-15T11:32:56.139Z,23.10
2019-06-15T11:35:24.730Z,22.90
2019-06-15T11:37:53.376Z,23.10
2019-06-15T11:40:22.064Z,23.10
2019-06-15T11:42:50.708Z,23.30
2019-06-15T11:45:19.414Z,23.40
2019-06-15T11:47:48.062Z,23.80
2019-06-15T11:50:16.752Z,23.30
2019-06-15T11:52:45.333Z,22.70
2019-06-15T11:55:13.986Z,22.60
2019-06-15T11:57:42.528Z,22.80
2019-06-15T12:00:11.721Z,22.70
2019-06-15T12:02:40.369Z,23.10
2019-06-15T12:05:09.365Z,23.10
2019-06-15T12:07:38.086Z,23.50
2019-06-15T12:10:07.376Z,24.40
2019-06-15T12:12:35.954Z,24.20
2019-06-15T12:15:06.537Z,23.80
2019-06-15T12:17:35.229Z,23.70
2019-06-15T12:20:07.234Z,23.90
2019-06-15T12:22:36.490Z,24.50
2019-06-15T12:25:05.887Z,24.00
2019-06-15T12:27:34.430Z,24.50
2019-06-15T12:30:04.987Z,24.60
2019-06-15T12:32:33.539Z,24.60
2019-06-15T12:35:02.085Z,24.60
2019-06-15T12:37:30.657Z,25.50
2019-06-15T12:39:59.242Z,25.80
2019-06-15T12:42:27.789Z,24.70
2019-06-15T12:44:56.331Z,23.90
2019-06-15T12:47:24.972Z,24.10
2019-06-15T12:49:53.467Z,24.40
2019-06-15T12:52:22.054Z,24.40
2019-06-15T12:54:50.974Z,24.10
2019-06-15T12:57:19.624Z,24.10
2019-06-15T12:59:48.649Z,24.40
2019-06-15T13:02:17.489Z,24.70
2019-06-15T13:04:46.196Z,24.70
2019-06-15T13:07:14.777Z,25.10
2019-06-15T13:09:43.325Z,24.70
2019-06-15T13:12:12.146Z,25.20
2019-06-15T13:14:40.693Z,25.20
2019-06-15T13:17:09.312Z,25.10
2019-06-15T13:19:37.904Z,26.40
2019-06-15T13:22:06.587Z,26.20
2019-06-15T13:24:35.219Z,26.20
2019-06-15T13:27:03.841Z,25.40
2019-06-15T13:29:32.587Z,24.40
2019-06-15T13:32:01.256Z,25.00
2019-06-15T13:34:29.821Z,25.40
2019-06-15T13:36:58.375Z,25.20
2019-06-15T13:39:27.013Z,25.70
2019-06-15T13:41:55.567Z,25.10
2019-06-15T13:44:24.227Z,24.60
2019-06-15T13:46:52.776Z,23.80
2019-06-15T13:49:21.426Z,23.50
2019-06-15T13:51:49.976Z,23.50
2019-06-15T13:54:18.563Z,23.30
2019-06-15T13:56:47.184Z,23.20
2019-06-15T13:59:15.765Z,23.10
2019-06-15T14:01:44.313Z,23.30
2019-06-15T14:04:13.098Z,23.70
2019-06-15T14:06:41.716Z,24.40
2019-06-15T14:09:10.447Z,24.40
2019-06-15T14:11:39.029Z,24.10
2019-06-15T14:14:07.730Z,24.10
2019-06-15T14:16:36.317Z,23.80
2019-06-15T14:19:04.970Z,23.70
2019-06-15T14:21:33.691Z,23.50
2019-06-15T14:24:02.497Z,23.70
2019-06-15T14:26:31.132Z,23.50
2019-06-15T14:28:59.704Z,23.20
2019-06-15T14:31:28.255Z,23.40
2019-06-15T14:34:00.514Z,24.30
2019-06-15T14:36:29.343Z,26.10
2019-06-15T14:38:58.185Z,27.10
2019-06-15T14:41:26.815Z,25.90
2019-06-15T14:43:55.550Z,24.40
2019-06-15T14:46:24.129Z,25.10
2019-06-15T14:48:52.717Z,25.20
2019-06-15T14:51:21.357Z,25.20
2019-06-15T14:53:55.306Z,26.20
2019-06-15T14:56:21.941Z,27.20
2019-06-15T14:58:50.848Z,29.00
2019-06-15T15:01:19.404Z,28.50
2019-06-15T15:03:47.976Z,27.40
2019-06-15T15:06:17.273Z,26.50
2019-06-15T15:08:47.094Z,26.00
2019-06-15T15:11:17.084Z,25.30
2019-06-15T15:13:47.111Z,24.90
2019-06-15T15:16:17.779Z,25.00
2019-06-15T15:18:46.578Z,25.00
2019-06-15T15:21:16.572Z,26.40
2019-06-15T15:23:46.456Z,26.60
2019-06-15T15:26:17.115Z,25.80
2019-06-15T15:28:47.301Z,25.30
2019-06-15T15:31:17.178Z,24.40
2019-06-15T15:33:47.598Z,24.40
2019-06-15T15:36:16.865Z,24.70
2019-06-15T15:38:46.802Z,24.70
2019-06-15T15:41:17.123Z,24.80
2019-06-15T15:43:46.475Z,26.00
2019-06-15T15:46:16.457Z,26.80
2019-06-15T15:48:46.944Z,27.20
2019-06-15T15:51:17.157Z,27.90
2019-06-15T15:53:46.914Z,29.40
2019-06-15T15:56:17.057Z,29.10
2019-06-15T15:58:47.193Z,29.70
2019-06-15T16:01:17.088Z,28.60
2019-06-15T16:03:47.427Z,29.80
2019-06-15T16:06:16.652Z,29.20
2019-06-15T16:08:46.995Z,29.10
2019-06-15T16:11:16.359Z,28.20
2019-06-15T16:13:46.240Z,29.30
2019-06-15T16:16:16.452Z,29.40
2019-06-15T16:18:46.915Z,30.20
2019-06-15T16:21:16.958Z,30.50
2019-06-15T16:23:47.414Z,30.00
2019-06-15T16:26:16.936Z,29.10
2019-06-15T16:28:46.330Z,27.50
2019-06-15T16:31:18.682Z,26.90
2019-06-15T16:33:46.496Z,25.90
2019-06-15T16:36:15.524Z,25.90
2019-06-15T16:38:46.775Z,25.70
2019-06-15T16:41:14.474Z,25.30
2019-06-15T16:43:43.179Z,24.90
2019-06-15T16:46:13.409Z,24.60
2019-06-15T16:48:42.026Z,24.30
2019-06-15T16:51:10.612Z,23.90
2019-06-15T16:53:39.153Z,23.60
2019-06-15T16:56:07.799Z,23.70
2019-06-15T16:58:36.450Z,23.60
2019-06-15T17:01:06.585Z,23.30
2019-06-15T17:03:36.677Z,22.90
2019-06-15T17:06:07.022Z,22.60
2019-06-15T17:08:36.810Z,22.60
2019-06-15T17:11:06.708Z,22.30
2019-06-15T17:13:37.050Z,21.90
2019-06-15T17:16:06.214Z,21.70
2019-06-15T17:18:36.470Z,21.90
2019-06-15T17:21:06.990Z,21.70
2019-06-15T17:23:35.570Z,21.40
2019-06-15T17:26:06.277Z,21.30
2019-06-15T17:28:36.751Z,21.30
2019-06-15T17:31:06.013Z,21.30
2019-06-15T17:33:38.110Z,21.30
2019-06-15T17:36:06.771Z,21.30
2019-06-15T17:38:36.882Z,21.20
2019-06-15T17:41:05.957Z,21.20
2019-06-15T17:43:36.509Z,21.10
2019-06-15T17:46:07.241Z,21.10
2019-06-15T17:48:37.061Z,20.90
2019-06-15T17:51:06.679Z,20.90
2019-06-15T17:53:36.784Z,20.60
2019-06-15T17:56:07.314Z,20.10
2019-06-15T17:58:36.961Z,19.40
2019-06-15T18:01:06.571Z,19.40
2019-06-15T18:03:49.686Z,19.20
2019-06-15T18:06:05.624Z,19.00
2019-06-15T18:08:36.929Z,18.80
2019-06-15T18:11:06.699Z,18.50
2019-06-15T18:13:36.990Z,18.50
2019-06-15T18:16:06.572Z,18.40
2019-06-15T18:18:37.081Z,18.60
2019-06-15T18:21:06.584Z,18.90
2019-06-15T18:23:36.930Z,19.10
2019-06-15T18:26:07.230Z,19.20
2019-06-15T18:28:36.281Z,19.20
2019-06-15T18:31:06.570Z,19.10
2019-06-15T18:33:36.555Z,19.20
2019-06-15T18:36:06.311Z,19.20
2019-06-15T18:38:37.098Z,19.20
2019-06-15T18:41:07.315Z,19.10
2019-06-15T18:43:36.637Z,19.00
2019-06-15T18:46:07.160Z,18.90
2019-06-15T18:48:36.212Z,18.70
2019-06-15T18:51:07.422Z,18.60
2019-06-15T18:53:38.948Z,18.60
2019-06-15T18:56:07.027Z,18.60
2019-06-15T18:58:37.233Z,18.50
2019-06-15T19:01:07.033Z,18.50
2019-06-15T19:03:37.563Z,18.50
2019-06-15T19:06:06.690Z,18.40
2019-06-15T19:08:35.452Z,18.30
2019-06-15T19:11:06.797Z,18.20
2019-06-15T19:13:35.981Z,18.10
2019-06-15T19:16:06.939Z,17.90
2019-06-15T19:18:36.971Z,18.00
2019-06-15T19:21:07.037Z,17.90
2019-06-15T19:23:36.159Z,17.90
2019-06-15T19:26:06.299Z,17.90
2019-06-15T19:28:37.117Z,17.80
2019-06-15T19:31:06.478Z,17.80
2019-06-15T19:33:37.692Z,17.70
2019-06-15T19:36:06.302Z,17.60
2019-06-15T19:38:36.217Z,17.50
2019-06-15T19:41:06.943Z,16.70
2019-06-15T19:43:36.413Z,16.20
2019-06-15T19:46:06.768Z,15.90
2019-06-15T19:48:36.920Z,16.10
2019-06-15T19:51:05.838Z,16.30
2019-06-15T19:53:36.466Z,16.30
2019-06-15T19:56:06.901Z,16.20
2019-06-15T19:58:35.124Z,16.20
2019-06-15T20:01:06.491Z,16.10
2019-06-15T20:03:36.158Z,16.20
2019-06-15T20:06:06.440Z,16.00
2019-06-15T20:08:36.169Z,16.00
2019-06-15T20:11:07.275Z,15.90
2019-06-15T20:13:37.063Z,15.90
2019-06-15T20:16:07.837Z,15.80
2019-06-15T20:18:37.535Z,15.70
2019-06-15T20:21:07.357Z,15.70
2019-06-15T20:23:37.218Z,15.80
2019-06-15T20:26:06.615Z,15.90
2019-06-15T20:28:35.666Z,15.90
2019-06-15T20:31:06.464Z,15.80
2019-06-15T20:33:37.023Z,15.80
2019-06-15T20:36:06.682Z,15.80
2019-06-15T20:38:36.342Z,15.80
2019-06-15T20:41:07.314Z,15.80
2019-06-15T20:43:36.671Z,16.00
2019-06-15T20:46:07.050Z,16.00
2019-06-15T20:48:36.329Z,16.00
2019-06-15T20:51:09.850Z,16.00
2019-06-15T20:53:36.782Z,16.00
2019-06-15T20:56:06.806Z,15.80
2019-06-15T20:58:37.268Z,15.80
2019-06-15T21:01:07.115Z,16.00
2019-06-15T21:03:36.664Z,15.90
2019-06-15T21:06:06.815Z,15.80
2019-06-15T21:08:36.459Z,16.00
2019-06-15T21:11:07.069Z,15.90
2019-06-15T21:13:37.576Z,15.90
2019-06-15T21:16:06.728Z,15.70
2019-06-15T21:18:37.181Z,15.70
2019-06-15T21:21:06.926Z,15.50
2019-06-15T21:23:37.347Z,15.50
2019-06-15T21:26:06.809Z,15.40
2019-06-15T21:28:36.790Z,15.40
2019-06-15T21:31:06.907Z,15.50
2019-06-15T21:33:36.095Z,15.40
2019-06-15T21:36:06.284Z,15.60
2019-06-15T21:38:36.142Z,15.70
2019-06-15T21:41:07.563Z,15.50
2019-06-15T21:43:36.317Z,15.50
2019-06-15T21:46:06.339Z,15.60
2019-06-15T21:48:36.499Z,15.70
2019-06-15T21:51:07.739Z,15.70
2019-06-15T21:53:36.192Z,15.60
2019-06-15T21:56:07.120Z,15.50
2019-06-15T21:58:36.702Z,15.50
2019-06-15T22:01:20.684Z,15.50
2019-06-15T22:03:49.239Z,15.50
2019-06-15T22:06:18.393Z,15.50
2019-06-15T22:08:47.114Z,15.40
2019-06-15T22:11:16.094Z,15.30
2019-06-15T22:13:46.429Z,15.20
2019-06-15T22:16:16.967Z,15.10
2019-06-15T22:18:47.502Z,14.90
2019-06-15T22:21:16.111Z,14.90
2019-06-15T22:23:47.092Z,14.80
2019-06-15T22:26:17.078Z,14.70
2019-06-15T22:28:47.063Z,14.70
2019-06-15T22:31:17.156Z,14.70
2019-06-15T22:33:47.338Z,14.60
2019-06-15T22:36:24.677Z,14.50
2019-06-15T22:38:46.568Z,14.60
2019-06-15T22:41:16.727Z,14.50
2019-06-15T22:43:46.227Z,14.50
2019-06-15T22:46:16.979Z,14.70
2019-06-15T22:48:46.976Z,14.60
2019-06-15T22:51:16.871Z,14.60
2019-06-15T22:53:47.125Z,14.70
2019-06-15T22:56:17.059Z,14.70
2019-06-15T22:58:46.263Z,14.70
2019-06-15T23:01:16.855Z,14.70
2019-06-15T23:03:46.570Z,14.60
2019-06-15T23:06:16.252Z,14.70
2019-06-15T23:08:47.145Z,14.70
2019-06-15T23:11:17.442Z,14.70
2019-06-15T23:13:46.292Z,14.70
2019-06-15T23:16:15.225Z,14.70
2019-06-15T23:18:43.773Z,14.70
2019-06-15T23:21:12.400Z,14.70
2019-06-15T23:23:40.976Z,14.70
2019-06-15T23:26:09.560Z,14.60
2019-06-15T23:28:38.160Z,14.70
2019-06-15T23:31:07.594Z,14.70
2019-06-15T23:33:36.321Z,14.60
2019-06-15T23:36:17.124Z,14.60
2019-06-15T23:38:46.424Z,14.60
2019-06-15T23:41:16.414Z,14.70
2019-06-15T23:43:46.411Z,14.50
2019-06-15T23:46:16.026Z,14.50
2019-06-15T23:48:46.862Z,14.60
2019-06-15T23:51:16.962Z,14.70
2019-06-15T23:53:46.204Z,14.70
2019-06-15T23:56:15.151Z,14.80
2019-06-15T23:58:46.201Z,14.70
